Terminal Aerodrome Forecast
Issued by NWS Boston, MA

Home | Current Version | Previous Version | Text Only | Print | Product List | Glossary On
Versions: 1 2 3 4 5 6 7 8 9 10 11 12 13 14 15 16 17 18 19 20 21 22 23 24 25 26 27 28
000
FTUS41 KBOX 232005 AAA
TAFPVD
TAF AMD
KPVD 232005Z 2320/2418 36018G25KT 4SM SHRA BR OVC008
     FM232300 35015G25KT P6SM OVC012
     FM241300 33010G20KT P6SM OVC025=

USA.gov is the U.S. government's official web portal to all federal, state and local government web resources and services.